createdAt,value
2018-04-01T00:00:49.731Z,97.10
2018-04-01T00:03:16.689Z,97.20
2018-04-01T00:05:43.677Z,97.20
2018-04-01T00:08:10.665Z,97.20
2018-04-01T00:10:37.659Z,97.10
2018-04-01T00:13:04.627Z,97.00
2018-04-01T00:15:31.610Z,97.10
2018-04-01T00:17:58.588Z,97.10
2018-04-01T00:20:25.570Z,97.10
2018-04-01T00:22:52.622Z,97.10
2018-04-01T00:25:19.590Z,97.10
2018-04-01T00:27:46.581Z,97.00
2018-04-01T00:30:13.557Z,97.10
2018-04-01T00:32:40.520Z,97.20
2018-04-01T00:35:07.500Z,97.40
2018-04-01T00:37:34.465Z,97.50
2018-04-01T00:40:02.221Z,97.90
2018-04-01T00:42:29.195Z,97.90
2018-04-01T00:44:56.173Z,98.20
2018-04-01T00:47:23.961Z,98.70
2018-04-01T00:49:50.940Z,98.40
2018-04-01T00:52:17.929Z,98.50
2018-04-01T00:54:45.680Z,98.80
2018-04-01T00:57:12.682Z,98.70
2018-04-01T00:59:39.668Z,98.60
2018-04-01T01:02:06.622Z,98.50
2018-04-01T01:04:33.618Z,98.40
2018-04-01T01:07:00.593Z,98.70
2018-04-01T01:09:27.555Z,98.80
2018-04-01T01:11:54.533Z,98.80
2018-04-01T01:14:22.262Z,98.90
2018-04-01T01:16:49.237Z,98.90
2018-04-01T01:19:17.016Z,98.90
2018-04-01T01:21:43.999Z,98.90
2018-04-01T01:24:10.986Z,99.20
2018-04-01T01:26:39.037Z,99.40
2018-04-01T01:29:06.034Z,99.30
2018-04-01T01:31:40.284Z,99.50
2018-04-01T01:34:07.255Z,99.60
2018-04-01T01:36:34.235Z,99.70
2018-04-01T01:39:01.237Z,99.80
2018-04-01T01:41:28.192Z,99.80
2018-04-01T01:43:55.783Z,99.90
2018-04-01T01:46:22.745Z,99.90
2018-04-01T01:48:49.751Z,99.90
2018-04-01T01:51:16.737Z,99.90
2018-04-01T01:53:43.722Z,99.90
2018-04-01T01:56:10.750Z,99.90
2018-04-01T01:58:37.723Z,99.90
2018-04-01T02:01:04.700Z,99.90
2018-04-01T02:03:31.670Z,99.90
2018-04-01T02:05:58.637Z,99.90
2018-04-01T02:08:25.618Z,99.90
2018-04-01T02:10:53.367Z,99.90
2018-04-01T02:13:20.362Z,99.90
2018-04-01T02:15:48.063Z,99.90
2018-04-01T02:18:15.043Z,99.90
2018-04-01T02:20:42.817Z,99.90
2018-04-01T02:23:09.801Z,99.90
2018-04-01T02:25:36.815Z,99.90
2018-04-01T02:28:03.755Z,99.90
2018-04-01T02:30:30.733Z,99.90
2018-04-01T02:32:57.731Z,99.90
2018-04-01T02:35:24.692Z,99.90
2018-04-01T02:37:51.729Z,99.90
2018-04-01T02:40:18.692Z,99.90
2018-04-01T02:42:45.667Z,99.90
2018-04-01T02:45:12.636Z,99.90
2018-04-01T02:47:39.596Z,99.90
2018-04-01T02:50:06.571Z,99.90
2018-04-01T02:52:34.068Z,99.90
2018-04-01T02:55:01.060Z,99.90
2018-04-01T02:57:28.040Z,99.90
2018-04-01T02:59:55.011Z,99.90
2018-04-01T03:02:21.990Z,99.90
2018-04-01T03:04:48.956Z,99.90
2018-04-01T03:07:16.003Z,99.90
2018-04-01T03:09:43.006Z,99.90
2018-04-01T03:12:10.012Z,99.90
2018-04-01T03:14:36.998Z,99.90
2018-04-01T03:17:03.960Z,99.90
2018-04-01T03:19:30.951Z,99.90
2018-04-01T03:21:57.941Z,99.90
2018-04-01T03:24:24.914Z,99.90
2018-04-01T03:26:51.956Z,99.90
2018-04-01T03:29:18.931Z,99.90
2018-04-01T03:31:45.941Z,99.90
2018-04-01T03:34:12.933Z,99.90
2018-04-01T03:36:39.890Z,99.90
2018-04-01T03:39:06.884Z,99.90
2018-04-01T03:41:34.670Z,99.90
2018-04-01T03:44:01.642Z,99.90
2018-04-01T03:46:28.644Z,99.90
2018-04-01T03:48:56.475Z,99.90
2018-04-01T03:51:23.495Z,99.90
2018-04-01T03:53:50.464Z,99.90
2018-04-01T03:56:17.440Z,99.90
2018-04-01T03:58:46.107Z,99.90
2018-04-01T04:01:13.107Z,99.90
2018-04-01T04:03:40.086Z,99.90
2018-04-01T04:06:07.850Z,99.90
2018-04-01T04:08:35.333Z,99.90
2018-04-01T04:11:02.357Z,99.90
2018-04-01T04:13:29.337Z,99.90
2018-04-01T04:15:56.345Z,99.90
2018-04-01T04:18:23.366Z,99.90
2018-04-01T04:20:51.155Z,99.90
2018-04-01T04:23:18.159Z,99.90
2018-04-01T04:25:45.899Z,99.90
2018-04-01T04:28:12.857Z,99.90
2018-04-01T04:30:39.858Z,99.90
2018-04-01T04:33:06.831Z,99.90
2018-04-01T04:35:33.827Z,99.90
2018-04-01T04:38:00.858Z,99.90
2018-04-01T04:40:27.830Z,99.90
2018-04-01T04:42:54.850Z,99.90
2018-04-01T04:45:21.847Z,99.90
2018-04-01T04:47:48.818Z,99.90
2018-04-01T04:50:16.573Z,99.90
2018-04-01T04:52:44.321Z,99.90
2018-04-01T04:55:11.337Z,99.90
2018-04-01T04:57:38.310Z,99.90
2018-04-01T05:00:05.300Z,99.90
2018-04-01T05:02:32.277Z,99.90
2018-04-01T05:05:00.173Z,99.90
2018-04-01T05:07:27.150Z,99.90
2018-04-01T05:09:54.133Z,99.90
2018-04-01T05:12:21.112Z,99.90
2018-04-01T05:14:48.086Z,99.90
2018-04-01T05:17:15.276Z,99.90
2018-04-01T05:19:42.241Z,99.90
2018-04-01T05:22:09.229Z,99.90
2018-04-01T05:24:36.198Z,99.90
2018-04-01T05:27:03.161Z,99.90
2018-04-01T05:29:30.179Z,99.90
2018-04-01T05:31:57.230Z,99.90
2018-04-01T05:34:24.222Z,99.90
2018-04-01T05:36:51.226Z,99.90
2018-04-01T05:39:18.203Z,99.90
2018-04-01T05:41:45.182Z,99.90
2018-04-01T05:44:12.181Z,99.90
2018-04-01T05:46:39.146Z,99.90
2018-04-01T05:49:06.125Z,99.90
2018-04-01T05:51:33.867Z,99.90
2018-04-01T05:54:00.834Z,99.90
2018-04-01T05:56:27.820Z,99.90
2018-04-01T05:58:54.794Z,99.90
2018-04-01T06:01:21.774Z,99.90
2018-04-01T06:03:49.519Z,99.90
2018-04-01T06:06:16.535Z,99.90
2018-04-01T06:08:43.517Z,99.90
2018-04-01T06:11:10.481Z,99.90
2018-04-01T06:13:37.477Z,99.90
2018-04-01T06:16:04.448Z,99.90
2018-04-01T06:18:31.431Z,99.90
2018-04-01T06:20:58.418Z,99.90
2018-04-01T06:23:25.417Z,99.90
2018-04-01T06:25:52.443Z,99.90
2018-04-01T06:28:19.749Z,99.90
2018-04-01T06:30:46.748Z,99.90
2018-04-01T06:33:14.506Z,99.90
2018-04-01T06:35:41.903Z,99.90
2018-04-01T06:38:08.878Z,99.90
2018-04-01T06:40:35.944Z,99.90
2018-04-01T06:43:03.021Z,99.90
2018-04-01T06:45:30.458Z,99.90
2018-04-01T06:47:58.538Z,99.90
2018-04-01T06:50:25.532Z,99.90
2018-04-01T06:52:52.563Z,99.90
2018-04-01T06:55:19.600Z,99.90
2018-04-01T06:57:46.636Z,99.90
2018-04-01T07:00:13.615Z,99.90
2018-04-01T07:02:40.637Z,99.90
2018-04-01T07:05:07.619Z,99.90
2018-04-01T07:07:34.607Z,99.90
2018-04-01T07:10:02.370Z,99.90
2018-04-01T07:12:30.112Z,99.90
2018-04-01T07:14:57.106Z,99.90
2018-04-01T07:17:24.068Z,99.90
2018-04-01T07:19:51.080Z,99.90
2018-04-01T07:22:18.845Z,99.90
2018-04-01T07:24:46.589Z,99.90
2018-04-01T07:27:13.602Z,99.90
2018-04-01T07:29:40.589Z,99.90
2018-04-01T07:32:07.561Z,99.90
2018-04-01T07:34:34.555Z,99.90
2018-04-01T07:37:01.537Z,99.90
2018-04-01T07:39:28.606Z,99.90
2018-04-01T07:41:55.687Z,99.90
2018-04-01T07:44:23.094Z,99.90
2018-04-01T07:46:50.242Z,99.90
2018-04-01T07:49:18.111Z,99.90
2018-04-01T07:51:45.123Z,99.90
2018-04-01T07:54:12.087Z,99.90
2018-04-01T07:56:39.902Z,99.90
2018-04-01T07:59:06.927Z,99.90
2018-04-01T08:01:34.264Z,99.90
2018-04-01T08:04:03.004Z,99.90
2018-04-01T08:06:30.960Z,99.90
2018-04-01T08:09:04.462Z,99.80
2018-04-01T08:11:31.565Z,99.90
2018-04-01T08:14:01.451Z,99.90
2018-04-01T08:16:28.497Z,99.90
2018-04-01T08:18:55.663Z,99.90
2018-04-01T08:21:22.697Z,99.90
2018-04-01T08:23:49.929Z,99.90
2018-04-01T08:26:17.138Z,99.90
2018-04-01T08:28:45.008Z,99.50
2018-04-01T08:31:12.816Z,99.60
2018-04-01T08:33:39.809Z,99.60
2018-04-01T08:36:07.675Z,99.30
2018-04-01T08:38:35.437Z,99.20
2018-04-01T08:41:02.463Z,99.20
2018-04-01T08:43:29.787Z,99.50
2018-04-01T08:45:56.852Z,99.50
2018-04-01T08:48:23.841Z,99.20
2018-04-01T08:50:50.831Z,98.90
2018-04-01T08:53:18.623Z,99.90
2018-04-01T08:55:45.813Z,99.80
2018-04-01T08:58:13.570Z,99.80
2018-04-01T09:00:40.566Z,99.80
2018-04-01T09:03:07.531Z,99.90
2018-04-01T09:05:34.528Z,99.90
2018-04-01T09:08:01.495Z,99.90
2018-04-01T09:10:28.516Z,99.90
2018-04-01T09:12:56.667Z,99.90
2018-04-01T09:15:24.406Z,99.90
2018-04-01T09:17:51.396Z,99.90
2018-04-01T09:20:18.961Z,99.90
2018-04-01T09:22:46.226Z,99.90
2018-04-01T09:25:13.299Z,99.90
2018-04-01T09:27:40.291Z,99.90
2018-04-01T09:30:08.182Z,99.90
2018-04-01T09:32:35.812Z,99.90
2018-04-01T09:35:03.564Z,99.90
2018-04-01T09:37:30.576Z,99.90
2018-04-01T09:39:57.574Z,99.90
2018-04-01T09:42:25.344Z,97.60
2018-04-01T09:44:52.394Z,97.60
2018-04-01T09:47:19.366Z,98.40
2018-04-01T09:49:46.365Z,98.90
2018-04-01T09:52:14.221Z,98.30
2018-04-01T09:54:43.364Z,98.60
2018-04-01T09:57:08.964Z,98.50
2018-04-01T09:59:35.946Z,98.80
2018-04-01T10:02:03.445Z,99.80
2018-04-01T10:04:31.659Z,98.90
2018-04-01T10:06:59.243Z,98.80
2018-04-01T10:09:26.828Z,99.80
2018-04-01T10:11:55.095Z,98.30
2018-04-01T10:14:23.413Z,98.50
2018-04-01T10:16:50.875Z,98.50
2018-04-01T10:19:18.536Z,96.90
2018-04-01T10:21:46.021Z,96.00
2018-04-01T10:24:13.497Z,96.80
2018-04-01T10:26:41.040Z,96.70
2018-04-01T10:29:08.527Z,95.10
2018-04-01T10:31:35.985Z,95.30
2018-04-01T10:34:04.274Z,93.40
2018-04-01T10:36:31.804Z,93.50
2018-04-01T10:38:59.325Z,93.70
2018-04-01T10:41:27.290Z,93.90
2018-04-01T10:43:54.860Z,93.10
2018-04-01T10:46:22.368Z,93.60
2018-04-01T10:48:50.624Z,94.00
2018-04-01T10:51:18.120Z,94.00
2018-04-01T10:54:00.719Z,94.20
2018-04-01T10:56:27.726Z,93.50
2018-04-01T10:58:54.707Z,92.70
2018-04-01T11:01:22.458Z,92.20
2018-04-01T11:03:49.447Z,92.10
2018-04-01T11:06:16.513Z,90.90
2018-04-01T11:08:43.500Z,91.90
2018-04-01T11:11:10.478Z,91.20
2018-04-01T11:13:37.460Z,91.00
2018-04-01T11:16:04.724Z,91.50
2018-04-01T11:18:31.720Z,91.40
2018-04-01T11:20:58.716Z,91.60
2018-04-01T11:23:25.700Z,92.70
2018-04-01T11:25:52.722Z,93.10
2018-04-01T11:28:19.707Z,93.00
2018-04-01T11:30:46.733Z,93.30
2018-04-01T11:33:14.491Z,91.60
2018-04-01T11:35:41.465Z,91.50
2018-04-01T11:38:08.437Z,91.40
2018-04-01T11:40:35.428Z,91.70
2018-04-01T11:43:02.394Z,91.20
2018-04-01T11:45:29.365Z,90.20
2018-04-01T11:47:56.356Z,91.20
2018-04-01T11:50:23.309Z,90.40
2018-04-01T11:52:50.305Z,89.20
2018-04-01T11:55:17.288Z,90.00
2018-04-01T11:57:44.268Z,90.40
2018-04-01T12:00:11.260Z,89.20
2018-04-01T12:02:38.256Z,87.90
2018-04-01T12:05:06.017Z,86.70
2018-04-01T12:07:33.789Z,86.40
2018-04-01T12:10:00.758Z,83.60
2018-04-01T12:12:27.753Z,88.50
2018-04-01T12:14:54.742Z,86.60
2018-04-01T12:17:21.751Z,84.70
2018-04-01T12:19:48.721Z,85.80
2018-04-01T12:22:15.715Z,89.80
2018-04-01T12:24:42.709Z,90.00
2018-04-01T12:27:10.451Z,91.60
2018-04-01T12:29:37.440Z,91.60
2018-04-01T12:32:04.448Z,92.10
2018-04-01T12:34:31.440Z,92.60
2018-04-01T12:36:58.439Z,93.00
2018-04-01T12:39:25.427Z,93.80
2018-04-01T12:42:06.521Z,94.20
2018-04-01T12:44:33.497Z,95.10
2018-04-01T12:47:00.499Z,96.30
2018-04-01T12:49:27.598Z,96.20
2018-04-01T12:51:54.567Z,97.00
2018-04-01T12:54:21.575Z,97.30
2018-04-01T12:56:48.553Z,97.60
2018-04-01T12:59:15.528Z,97.90
2018-04-01T13:01:42.518Z,97.40
2018-04-01T13:04:09.529Z,97.90
2018-04-01T13:06:36.499Z,97.80
2018-04-01T13:09:03.547Z,98.10
2018-04-01T13:11:31.009Z,98.30
2018-04-01T13:13:58.656Z,96.30
2018-04-01T13:16:25.636Z,95.10
2018-04-01T13:18:52.625Z,93.20
2018-04-01T13:21:19.611Z,91.50
2018-04-01T13:23:46.859Z,89.60
2018-04-01T13:26:13.897Z,89.00
2018-04-01T13:28:40.839Z,87.30
2018-04-01T13:31:07.853Z,85.40
2018-04-01T13:33:34.847Z,86.40
2018-04-01T13:36:01.828Z,85.00
2018-04-01T13:38:29.623Z,91.30
2018-04-01T13:40:56.641Z,91.30
2018-04-01T13:43:23.654Z,91.90
2018-04-01T13:45:50.680Z,93.30
2018-04-01T13:48:17.657Z,92.80
2018-04-01T13:50:44.666Z,93.40
2018-04-01T13:53:11.758Z,91.30
2018-04-01T13:55:38.933Z,86.30
2018-04-01T13:58:06.684Z,77.50
2018-04-01T14:00:33.665Z,77.50
2018-04-01T14:03:00.642Z,78.20
2018-04-01T14:05:27.626Z,81.30
2018-04-01T14:07:54.627Z,82.70
2018-04-01T14:10:21.627Z,85.80
2018-04-01T14:12:48.626Z,85.60
2018-04-01T14:15:15.620Z,81.40
2018-04-01T14:17:43.384Z,84.20
2018-04-01T14:20:10.357Z,84.10
2018-04-01T14:22:37.335Z,87.80
2018-04-01T14:25:04.331Z,90.50
2018-04-01T14:27:32.132Z,90.60
2018-04-01T14:29:59.108Z,91.00
2018-04-01T14:32:26.877Z,91.60
2018-04-01T14:34:53.847Z,91.40
2018-04-01T14:37:20.823Z,91.40
2018-04-01T14:39:47.786Z,91.80
2018-04-01T14:42:14.803Z,90.70
2018-04-01T14:44:41.781Z,85.30
2018-04-01T14:47:08.764Z,87.10
2018-04-01T14:49:35.739Z,84.90
2018-04-01T14:52:02.727Z,84.10
2018-04-01T14:54:29.686Z,85.00
2018-04-01T14:56:57.452Z,87.20
2018-04-01T14:59:24.416Z,86.80
2018-04-01T15:01:51.407Z,87.80
2018-04-01T15:04:18.386Z,90.00
2018-04-01T15:06:45.364Z,90.10
2018-04-01T15:09:12.326Z,90.50
2018-04-01T15:11:39.282Z,89.50
2018-04-01T15:14:06.265Z,82.00
2018-04-01T15:16:33.268Z,73.30
2018-04-01T15:19:00.245Z,68.30
2018-04-01T15:21:27.206Z,67.60
2018-04-01T15:23:54.213Z,68.50
2018-04-01T15:26:21.188Z,72.00
2018-04-01T15:28:48.151Z,73.70
2018-04-01T15:31:15.169Z,76.60
2018-04-01T15:33:42.183Z,71.70
2018-04-01T15:36:09.162Z,70.40
2018-04-01T15:38:39.812Z,67.90
2018-04-01T15:41:07.674Z,66.50
2018-04-01T15:43:34.665Z,65.00
2018-04-01T15:46:01.656Z,60.80
2018-04-01T15:48:28.626Z,66.80
2018-04-01T15:50:56.367Z,71.50
2018-04-01T15:53:23.363Z,71.40
2018-04-01T15:55:50.328Z,75.00
2018-04-01T15:58:17.294Z,76.80
2018-04-01T16:00:44.291Z,78.30
2018-04-01T16:03:12.036Z,81.50
2018-04-01T16:05:39.776Z,82.60
2018-04-01T16:08:06.756Z,82.50
2018-04-01T16:10:33.760Z,84.10
2018-04-01T16:13:00.730Z,84.80
2018-04-01T16:15:27.723Z,86.00
2018-04-01T16:17:54.770Z,85.70
2018-04-01T16:20:21.734Z,85.20
2018-04-01T16:22:56.936Z,86.00
2018-04-01T16:25:24.697Z,85.70
2018-04-01T16:27:51.707Z,85.70
2018-04-01T16:30:18.717Z,87.10
2018-04-01T16:32:45.708Z,86.50
2018-04-01T16:35:12.694Z,86.80
2018-04-01T16:37:39.663Z,87.60
2018-04-01T16:40:06.671Z,88.70
2018-04-01T16:42:33.709Z,88.60
2018-04-01T16:45:01.436Z,89.50
2018-04-01T16:47:28.431Z,89.40
2018-04-01T16:49:56.202Z,90.20
2018-04-01T16:52:23.177Z,90.10
2018-04-01T16:54:50.157Z,90.60
2018-04-01T16:57:17.146Z,90.60
2018-04-01T16:59:44.147Z,90.90
2018-04-01T17:02:11.110Z,90.50
2018-04-01T17:04:38.126Z,91.20
2018-04-01T17:07:05.120Z,91.20
2018-04-01T17:09:32.168Z,90.50
2018-04-01T17:11:59.134Z,90.90
2018-04-01T17:14:26.115Z,91.30
2018-04-01T17:16:53.273Z,91.40
2018-04-01T17:19:20.320Z,91.30
2018-04-01T17:21:48.098Z,91.30
2018-04-01T17:24:15.093Z,91.20
2018-04-01T17:26:42.069Z,91.30
2018-04-01T17:29:09.067Z,91.10
2018-04-01T17:31:36.054Z,91.20
2018-04-01T17:34:03.045Z,91.60
2018-04-01T17:36:30.068Z,92.00
2018-04-01T17:38:57.060Z,91.90
2018-04-01T17:41:24.095Z,91.90
2018-04-01T17:43:51.044Z,92.10
2018-04-01T17:46:18.022Z,91.90
2018-04-01T17:48:45.068Z,91.90
2018-04-01T17:51:12.052Z,92.00
2018-04-01T17:53:39.833Z,92.10
2018-04-01T17:56:07.577Z,92.20
2018-04-01T17:58:34.542Z,92.20
2018-04-01T18:01:02.304Z,92.40
2018-04-01T18:03:30.036Z,92.60
2018-04-01T18:05:57.036Z,92.60
2018-04-01T18:08:24.060Z,92.50
2018-04-01T18:10:51.086Z,92.60
2018-04-01T18:13:18.066Z,92.80
2018-04-01T18:15:45.040Z,92.80
2018-04-01T18:18:12.038Z,92.50
2018-04-01T18:20:39.016Z,92.50
2018-04-01T18:23:06.072Z,92.40
2018-04-01T18:25:33.058Z,92.40
2018-04-01T18:28:00.037Z,92.40
2018-04-01T18:30:27.790Z,92.50
2018-04-01T18:32:54.760Z,92.50
2018-04-01T18:35:21.759Z,92.70
2018-04-01T18:37:48.753Z,92.70
2018-04-01T18:40:15.729Z,92.90
2018-04-01T18:42:43.478Z,93.10
2018-04-01T18:45:10.475Z,93.10
2018-04-01T18:47:37.465Z,93.10
2018-04-01T18:50:04.500Z,93.20
2018-04-01T18:52:31.496Z,93.30
2018-04-01T18:54:58.506Z,93.30
2018-04-01T18:57:25.489Z,93.20
2018-04-01T18:59:52.484Z,93.30
2018-04-01T19:02:19.482Z,93.20
2018-04-01T19:04:46.534Z,93.10
2018-04-01T19:07:13.524Z,93.30
2018-04-01T19:09:40.507Z,93.30
2018-04-01T19:12:07.508Z,93.40
2018-04-01T19:14:34.535Z,93.30
2018-04-01T19:17:13.011Z,92.90
2018-04-01T19:19:40.496Z,93.20
2018-04-01T19:22:08.017Z,93.20
2018-04-01T19:24:35.521Z,93.40
2018-04-01T19:27:03.010Z,93.40
2018-04-01T19:29:30.499Z,93.50
2018-04-01T19:31:58.024Z,93.60
2018-04-01T19:34:25.528Z,93.60
2018-04-01T19:36:52.984Z,93.30
2018-04-01T19:39:20.436Z,93.70
2018-04-01T19:41:47.939Z,94.00
2018-04-01T19:44:16.306Z,94.00
2018-04-01T19:46:44.556Z,94.10
2018-04-01T19:49:12.070Z,94.10
2018-04-01T19:51:39.617Z,93.80
2018-04-01T19:54:07.853Z,93.90
2018-04-01T19:56:35.332Z,93.90
2018-04-01T19:59:02.809Z,94.30
2018-04-01T20:01:30.295Z,94.10
2018-04-01T20:03:57.750Z,94.10
2018-04-01T20:06:25.209Z,94.20
2018-04-01T20:08:52.725Z,94.30
2018-04-01T20:11:20.182Z,94.30
2018-04-01T20:13:47.733Z,94.60
2018-04-01T20:16:15.156Z,94.80
2018-04-01T20:18:42.619Z,94.80
2018-04-01T20:21:10.111Z,94.90
2018-04-01T20:23:38.341Z,94.80
2018-04-01T20:26:05.939Z,94.70
2018-04-01T20:28:33.421Z,94.50
2018-04-01T20:31:01.664Z,94.70
2018-04-01T20:33:29.155Z,94.80
2018-04-01T20:35:56.622Z,94.60
2018-04-01T20:38:24.123Z,94.60
2018-04-01T20:40:51.671Z,94.40
2018-04-01T20:43:19.901Z,94.80
2018-04-01T20:45:48.134Z,94.40
2018-04-01T20:48:15.698Z,94.50
2018-04-01T20:50:43.193Z,94.50
2018-04-01T20:53:11.433Z,95.10
2018-04-01T20:55:38.890Z,95.00
2018-04-01T20:58:06.398Z,95.00
2018-04-01T21:00:33.868Z,95.00
2018-04-01T21:03:01.353Z,95.30
2018-04-01T21:05:28.830Z,95.20
2018-04-01T21:07:56.482Z,95.50
2018-04-01T21:10:23.956Z,95.40
2018-04-01T21:12:51.450Z,95.50
2018-04-01T21:15:18.977Z,95.60
2018-04-01T21:17:53.604Z,95.90
2018-04-01T21:20:21.888Z,96.40
2018-04-01T21:22:50.150Z,96.20
2018-04-01T21:25:17.618Z,96.10
2018-04-01T21:27:45.092Z,96.30
2018-04-01T21:30:12.600Z,96.50
2018-04-01T21:32:40.082Z,96.60
2018-04-01T21:35:07.563Z,96.60
2018-04-01T21:37:43.786Z,96.60
2018-04-01T21:40:11.515Z,96.80
2018-04-01T21:42:39.223Z,97.00
2018-04-01T21:45:06.699Z,97.00
2018-04-01T21:47:34.936Z,97.10
2018-04-01T21:50:02.464Z,97.00
2018-04-01T21:52:30.716Z,97.00
2018-04-01T21:54:58.187Z,97.00
2018-04-01T21:57:25.951Z,96.90
2018-04-01T21:59:53.558Z,97.00
2018-04-01T22:02:21.042Z,97.00
2018-04-01T22:04:53.191Z,97.00
2018-04-01T22:07:20.677Z,96.90
2018-04-01T22:09:48.170Z,96.90
2018-04-01T22:12:15.628Z,97.00
2018-04-01T22:14:43.202Z,97.10
2018-04-01T22:17:11.410Z,97.20
2018-04-01T22:19:39.641Z,97.20
2018-04-01T22:22:07.115Z,97.20
2018-04-01T22:24:34.585Z,97.40
2018-04-01T22:27:02.051Z,97.40
2018-04-01T22:29:29.548Z,97.40
2018-04-01T22:31:57.022Z,97.50
2018-04-01T22:34:24.502Z,97.60
2018-04-01T22:36:51.967Z,97.50
2018-04-01T22:39:19.448Z,97.60
2018-04-01T22:41:47.685Z,97.70
2018-04-01T22:44:15.146Z,97.70
2018-04-01T22:46:42.618Z,97.70
2018-04-01T22:49:10.158Z,97.80
2018-04-01T22:51:37.616Z,97.80
2018-04-01T22:54:05.120Z,97.90
2018-04-01T22:56:32.544Z,97.90
2018-04-01T22:59:00.023Z,97.90
2018-04-01T23:01:28.248Z,97.80
2018-04-01T23:03:55.712Z,97.80
2018-04-01T23:06:23.203Z,98.00
2018-04-01T23:08:50.671Z,97.90
2018-04-01T23:11:18.916Z,98.10
2018-04-01T23:13:46.428Z,98.00
2018-04-01T23:16:13.843Z,98.00
2018-04-01T23:18:41.318Z,98.00
2018-04-01T23:21:09.545Z,98.00
2018-04-01T23:23:37.010Z,98.00
2018-04-01T23:26:04.471Z,98.10
2018-04-01T23:28:31.979Z,98.10
2018-04-01T23:30:59.459Z,98.10
2018-04-01T23:33:26.919Z,98.20
2018-04-01T23:35:54.400Z,98.40
2018-04-01T23:38:22.628Z,98.50
2018-04-01T23:40:50.117Z,98.50
2018-04-01T23:43:17.585Z,98.60
2018-04-01T23:45:45.043Z,98.70
2018-04-01T23:48:12.523Z,98.80
2018-04-01T23:50:39.993Z,98.90
2018-04-01T23:53:07.466Z,99.00
2018-04-01T23:55:34.952Z,99.00
2018-04-01T23:58:02.422Z,99.10
